sensor_id;sensor_type;location;lat;lon;timestamp;P1;durP1;ratioP1;P2;durP2;ratioP2
65471;SDS011;52068;50.710;14.492;2024-03-06T00:00:40;7.75;;;5.75;;
65471;SDS011;52068;50.710;14.492;2024-03-06T00:03:05;9.02;;;6.53;;
65471;SDS011;52068;50.710;14.492;2024-03-06T00:05:31;8.77;;;6.45;;
65471;SDS011;52068;50.710;14.492;2024-03-06T00:07:56;11.45;;;6.50;;
65471;SDS011;52068;50.710;14.492;2024-03-06T00:10:21;7.57;;;5.93;;
65471;SDS011;52068;50.710;14.492;2024-03-06T00:12:47;7.05;;;5.68;;
65471;SDS011;52068;50.710;14.492;2024-03-06T00:15:12;9.05;;;6.05;;
65471;SDS011;52068;50.710;14.492;2024-03-06T00:17:37;8.40;;;6.10;;
65471;SDS011;52068;50.710;14.492;2024-03-06T00:20:03;10.00;;;6.55;;
65471;SDS011;52068;50.710;14.492;2024-03-06T00:22:30;10.40;;;6.65;;
65471;SDS011;52068;50.710;14.492;2024-03-06T00:24:55;12.60;;;7.15;;
65471;SDS011;52068;50.710;14.492;2024-03-06T00:27:21;9.77;;;6.45;;
65471;SDS011;52068;50.710;14.492;2024-03-06T00:29:46;9.25;;;6.28;;
65471;SDS011;52068;50.710;14.492;2024-03-06T00:32:12;10.07;;;5.88;;
65471;SDS011;52068;50.710;14.492;2024-03-06T00:34:37;9.80;;;6.40;;
65471;SDS011;52068;50.710;14.492;2024-03-06T00:37:02;10.93;;;6.63;;
65471;SDS011;52068;50.710;14.492;2024-03-06T00:39:28;10.85;;;6.15;;
65471;SDS011;52068;50.710;14.492;2024-03-06T00:41:53;9.70;;;6.03;;
65471;SDS011;52068;50.710;14.492;2024-03-06T00:44:19;10.82;;;6.50;;
65471;SDS011;52068;50.710;14.492;2024-03-06T00:46:44;8.43;;;6.13;;
65471;SDS011;52068;50.710;14.492;2024-03-06T00:49:09;9.40;;;6.40;;
65471;SDS011;52068;50.710;14.492;2024-03-06T00:51:35;10.65;;;6.60;;
65471;SDS011;52068;50.710;14.492;2024-03-06T00:54:02;8.15;;;6.13;;
65471;SDS011;52068;50.710;14.492;2024-03-06T00:56:27;10.70;;;6.10;;
65471;SDS011;52068;50.710;14.492;2024-03-06T00:58:53;11.07;;;5.72;;
65471;SDS011;52068;50.710;14.492;2024-03-06T01:01:18;9.93;;;6.60;;
65471;SDS011;52068;50.710;14.492;2024-03-06T01:03:43;8.40;;;5.65;;
65471;SDS011;52068;50.710;14.492;2024-03-06T01:06:09;8.38;;;5.95;;
65471;SDS011;52068;50.710;14.492;2024-03-06T01:08:34;10.38;;;6.50;;
65471;SDS011;52068;50.710;14.492;2024-03-06T01:11:00;7.32;;;5.75;;
65471;SDS011;52068;50.710;14.492;2024-03-06T01:13:26;9.73;;;6.50;;
65471;SDS011;52068;50.710;14.492;2024-03-06T01:15:51;10.27;;;6.65;;
65471;SDS011;52068;50.710;14.492;2024-03-06T01:18:17;9.20;;;5.90;;
65471;SDS011;52068;50.710;14.492;2024-03-06T01:20:42;11.55;;;7.13;;
65471;SDS011;52068;50.710;14.492;2024-03-06T01:23:07;12.25;;;7.47;;
65471;SDS011;52068;50.710;14.492;2024-03-06T01:25:33;14.05;;;7.18;;
65471;SDS011;52068;50.710;14.492;2024-03-06T01:27:59;10.50;;;7.32;;
65471;SDS011;52068;50.710;14.492;2024-03-06T01:30:24;10.25;;;7.03;;
65471;SDS011;52068;50.710;14.492;2024-03-06T01:32:49;10.35;;;6.90;;
65471;SDS011;52068;50.710;14.492;2024-03-06T01:35:15;9.20;;;7.05;;
65471;SDS011;52068;50.710;14.492;2024-03-06T01:37:40;10.15;;;6.50;;
65471;SDS011;52068;50.710;14.492;2024-03-06T01:40:06;13.82;;;7.00;;
65471;SDS011;52068;50.710;14.492;2024-03-06T01:42:32;9.00;;;6.80;;
65471;SDS011;52068;50.710;14.492;2024-03-06T01:44:58;10.23;;;6.72;;
65471;SDS011;52068;50.710;14.492;2024-03-06T01:47:24;9.98;;;6.15;;
65471;SDS011;52068;50.710;14.492;2024-03-06T01:49:49;11.95;;;6.75;;
65471;SDS011;52068;50.710;14.492;2024-03-06T01:52:15;9.32;;;6.47;;
65471;SDS011;52068;50.710;14.492;2024-03-06T01:54:42;8.15;;;6.45;;
65471;SDS011;52068;50.710;14.492;2024-03-06T01:57:09;18.30;;;7.05;;
65471;SDS011;52068;50.710;14.492;2024-03-06T01:59:36;9.90;;;6.80;;
65471;SDS011;52068;50.710;14.492;2024-03-06T02:02:01;9.68;;;6.97;;
65471;SDS011;52068;50.710;14.492;2024-03-06T02:04:28;9.95;;;6.57;;
65471;SDS011;52068;50.710;14.492;2024-03-06T02:06:54;9.45;;;6.68;;
65471;SDS011;52068;50.710;14.492;2024-03-06T02:09:19;9.90;;;6.20;;
65471;SDS011;52068;50.710;14.492;2024-03-06T02:11:45;10.60;;;5.93;;
65471;SDS011;52068;50.710;14.492;2024-03-06T02:14:10;11.43;;;7.00;;
65471;SDS011;52068;50.710;14.492;2024-03-06T02:16:36;10.70;;;7.07;;
65471;SDS011;52068;50.710;14.492;2024-03-06T02:19:03;12.90;;;7.38;;
65471;SDS011;52068;50.710;14.492;2024-03-06T02:21:29;10.88;;;6.90;;
65471;SDS011;52068;50.710;14.492;2024-03-06T02:23:55;11.75;;;7.38;;
65471;SDS011;52068;50.710;14.492;2024-03-06T02:26:21;12.98;;;8.13;;
65471;SDS011;52068;50.710;14.492;2024-03-06T02:28:47;10.98;;;7.45;;
65471;SDS011;52068;50.710;14.492;2024-03-06T02:31:16;15.13;;;7.88;;
65471;SDS011;52068;50.710;14.492;2024-03-06T02:33:46;19.48;;;9.00;;
65471;SDS011;52068;50.710;14.492;2024-03-06T02:36:13;11.88;;;7.40;;
65471;SDS011;52068;50.710;14.492;2024-03-06T02:38:39;19.67;;;9.95;;
65471;SDS011;52068;50.710;14.492;2024-03-06T02:41:05;13.82;;;8.52;;
65471;SDS011;52068;50.710;14.492;2024-03-06T02:43:31;11.70;;;7.30;;
65471;SDS011;52068;50.710;14.492;2024-03-06T02:46:00;10.93;;;6.53;;
65471;SDS011;52068;50.710;14.492;2024-03-06T02:48:25;11.10;;;6.90;;
65471;SDS011;52068;50.710;14.492;2024-03-06T02:50:51;11.38;;;7.32;;
65471;SDS011;52068;50.710;14.492;2024-03-06T02:53:17;9.60;;;6.68;;
65471;SDS011;52068;50.710;14.492;2024-03-06T02:55:42;13.85;;;6.82;;
65471;SDS011;52068;50.710;14.492;2024-03-06T02:58:07;9.35;;;6.43;;
65471;SDS011;52068;50.710;14.492;2024-03-06T03:00:33;14.18;;;6.90;;
65471;SDS011;52068;50.710;14.492;2024-03-06T03:02:58;11.70;;;7.00;;
65471;SDS011;52068;50.710;14.492;2024-03-06T03:05:24;10.73;;;7.03;;
65471;SDS011;52068;50.710;14.492;2024-03-06T03:07:49;10.35;;;6.47;;
65471;SDS011;52068;50.710;14.492;2024-03-06T03:10:15;10.63;;;6.40;;
65471;SDS011;52068;50.710;14.492;2024-03-06T03:12:41;11.07;;;7.50;;
65471;SDS011;52068;50.710;14.492;2024-03-06T03:15:06;13.52;;;6.93;;
65471;SDS011;52068;50.710;14.492;2024-03-06T03:17:32;10.75;;;6.88;;
65471;SDS011;52068;50.710;14.492;2024-03-06T03:19:58;11.27;;;6.38;;
65471;SDS011;52068;50.710;14.492;2024-03-06T03:22:24;11.70;;;7.68;;
65471;SDS011;52068;50.710;14.492;2024-03-06T03:24:50;16.60;;;7.45;;
65471;SDS011;52068;50.710;14.492;2024-03-06T03:27:15;11.82;;;7.07;;
65471;SDS011;52068;50.710;14.492;2024-03-06T03:29:41;14.57;;;8.45;;
65471;SDS011;52068;50.710;14.492;2024-03-06T03:32:06;13.23;;;7.80;;
65471;SDS011;52068;50.710;14.492;2024-03-06T03:34:33;12.73;;;7.22;;
65471;SDS011;52068;50.710;14.492;2024-03-06T03:36:59;12.52;;;7.30;;
65471;SDS011;52068;50.710;14.492;2024-03-06T03:39:25;10.45;;;6.88;;
65471;SDS011;52068;50.710;14.492;2024-03-06T03:41:52;11.70;;;7.35;;
65471;SDS011;52068;50.710;14.492;2024-03-06T03:44:18;10.57;;;7.10;;
65471;SDS011;52068;50.710;14.492;2024-03-06T03:46:44;11.43;;;6.35;;
65471;SDS011;52068;50.710;14.492;2024-03-06T03:49:10;11.85;;;6.90;;
65471;SDS011;52068;50.710;14.492;2024-03-06T03:51:35;10.52;;;6.40;;
65471;SDS011;52068;50.710;14.492;2024-03-06T03:54:02;14.20;;;6.68;;
65471;SDS011;52068;50.710;14.492;2024-03-06T03:56:28;9.65;;;6.43;;
65471;SDS011;52068;50.710;14.492;2024-03-06T03:58:53;12.88;;;7.03;;
65471;SDS011;52068;50.710;14.492;2024-03-06T04:01:19;8.98;;;6.57;;
65471;SDS011;52068;50.710;14.492;2024-03-06T04:03:44;12.35;;;6.55;;
65471;SDS011;52068;50.710;14.492;2024-03-06T04:06:10;10.57;;;6.93;;
65471;SDS011;52068;50.710;14.492;2024-03-06T04:08:35;12.15;;;6.90;;
65471;SDS011;52068;50.710;14.492;2024-03-06T04:11:02;9.52;;;6.18;;
65471;SDS011;52068;50.710;14.492;2024-03-06T04:13:28;9.13;;;6.80;;
65471;SDS011;52068;50.710;14.492;2024-03-06T04:15:54;9.07;;;6.28;;
65471;SDS011;52068;50.710;14.492;2024-03-06T04:18:20;10.18;;;6.50;;
65471;SDS011;52068;50.710;14.492;2024-03-06T04:20:46;11.50;;;6.78;;
65471;SDS011;52068;50.710;14.492;2024-03-06T04:23:11;12.52;;;7.32;;
65471;SDS011;52068;50.710;14.492;2024-03-06T04:25:36;10.23;;;6.85;;
65471;SDS011;52068;50.710;14.492;2024-03-06T04:28:04;10.32;;;7.45;;
65471;SDS011;52068;50.710;14.492;2024-03-06T04:30:29;13.15;;;7.50;;
65471;SDS011;52068;50.710;14.492;2024-03-06T04:32:54;10.18;;;7.00;;
65471;SDS011;52068;50.710;14.492;2024-03-06T04:35:20;13.07;;;7.00;;
65471;SDS011;52068;50.710;14.492;2024-03-06T04:37:45;11.88;;;7.00;;
65471;SDS011;52068;50.710;14.492;2024-03-06T04:40:11;11.73;;;6.00;;
65471;SDS011;52068;50.710;14.492;2024-03-06T04:42:36;10.80;;;6.32;;
65471;SDS011;52068;50.710;14.492;2024-03-06T04:45:12;8.88;;;5.82;;
65471;SDS011;52068;50.710;14.492;2024-03-06T04:47:40;14.02;;;6.72;;
65471;SDS011;52068;50.710;14.492;2024-03-06T04:50:08;8.30;;;6.05;;
65471;SDS011;52068;50.710;14.492;2024-03-06T04:52:38;10.50;;;6.40;;
65471;SDS011;52068;50.710;14.492;2024-03-06T04:55:04;13.82;;;7.18;;
65471;SDS011;52068;50.710;14.492;2024-03-06T04:57:30;11.55;;;7.13;;
65471;SDS011;52068;50.710;14.492;2024-03-06T04:59:55;17.25;;;6.53;;
65471;SDS011;52068;50.710;14.492;2024-03-06T05:02:21;9.43;;;6.80;;
65471;SDS011;52068;50.710;14.492;2024-03-06T05:04:46;9.98;;;6.55;;
65471;SDS011;52068;50.710;14.492;2024-03-06T05:07:11;10.57;;;6.75;;
65471;SDS011;52068;50.710;14.492;2024-03-06T05:09:38;14.45;;;6.95;;
65471;SDS011;52068;50.710;14.492;2024-03-06T05:12:04;10.55;;;6.85;;
65471;SDS011;52068;50.710;14.492;2024-03-06T05:14:30;14.27;;;7.18;;
65471;SDS011;52068;50.710;14.492;2024-03-06T05:16:55;9.95;;;6.55;;
65471;SDS011;52068;50.710;14.492;2024-03-06T05:19:21;14.02;;;7.20;;
65471;SDS011;52068;50.710;14.492;2024-03-06T05:21:46;13.00;;;7.32;;
65471;SDS011;52068;50.710;14.492;2024-03-06T05:24:11;9.50;;;6.60;;
65471;SDS011;52068;50.710;14.492;2024-03-06T05:26:37;10.82;;;6.20;;
65471;SDS011;52068;50.710;14.492;2024-03-06T05:29:02;24.13;;;6.75;;
65471;SDS011;52068;50.710;14.492;2024-03-06T05:31:28;16.48;;;6.90;;
65471;SDS011;52068;50.710;14.492;2024-03-06T05:33:53;10.65;;;6.75;;
65471;SDS011;52068;50.710;14.492;2024-03-06T05:36:19;9.60;;;6.65;;
65471;SDS011;52068;50.710;14.492;2024-03-06T05:38:44;13.45;;;7.28;;
65471;SDS011;52068;50.710;14.492;2024-03-06T05:41:10;10.18;;;6.18;;
65471;SDS011;52068;50.710;14.492;2024-03-06T05:43:36;10.60;;;6.55;;
65471;SDS011;52068;50.710;14.492;2024-03-06T05:46:01;10.93;;;6.45;;
65471;SDS011;52068;50.710;14.492;2024-03-06T05:48:26;10.52;;;5.88;;
65471;SDS011;52068;50.710;14.492;2024-03-06T05:50:52;12.65;;;7.13;;
65471;SDS011;52068;50.710;14.492;2024-03-06T05:53:18;12.55;;;6.88;;
65471;SDS011;52068;50.710;14.492;2024-03-06T05:55:43;8.80;;;6.25;;
65471;SDS011;52068;50.710;14.492;2024-03-06T05:58:09;10.38;;;6.30;;
65471;SDS011;52068;50.710;14.492;2024-03-06T06:00:34;10.77;;;6.63;;
65471;SDS011;52068;50.710;14.492;2024-03-06T06:03:00;14.88;;;7.40;;
65471;SDS011;52068;50.710;14.492;2024-03-06T06:05:25;12.38;;;6.93;;
65471;SDS011;52068;50.710;14.492;2024-03-06T06:07:51;18.35;;;7.18;;
65471;SDS011;52068;50.710;14.492;2024-03-06T06:10:16;14.77;;;6.97;;
65471;SDS011;52068;50.710;14.492;2024-03-06T06:12:42;12.18;;;7.13;;
65471;SDS011;52068;50.710;14.492;2024-03-06T06:15:07;13.55;;;7.05;;
65471;SDS011;52068;50.710;14.492;2024-03-06T06:17:33;15.80;;;7.35;;
65471;SDS011;52068;50.710;14.492;2024-03-06T06:19:59;11.88;;;7.70;;
65471;SDS011;52068;50.710;14.492;2024-03-06T06:22:28;9.93;;;7.25;;
65471;SDS011;52068;50.710;14.492;2024-03-06T06:24:54;9.60;;;6.60;;
65471;SDS011;52068;50.710;14.492;2024-03-06T06:27:20;11.88;;;6.45;;
65471;SDS011;52068;50.710;14.492;2024-03-06T06:29:46;13.57;;;6.53;;
65471;SDS011;52068;50.710;14.492;2024-03-06T06:32:11;16.90;;;7.05;;
65471;SDS011;52068;50.710;14.492;2024-03-06T06:34:37;13.52;;;6.63;;
65471;SDS011;52068;50.710;14.492;2024-03-06T06:37:02;11.68;;;6.60;;
65471;SDS011;52068;50.710;14.492;2024-03-06T06:39:28;14.20;;;6.43;;
65471;SDS011;52068;50.710;14.492;2024-03-06T06:41:53;12.02;;;6.75;;
65471;SDS011;52068;50.710;14.492;2024-03-06T06:44:18;11.32;;;6.72;;
65471;SDS011;52068;50.710;14.492;2024-03-06T06:46:44;8.30;;;6.20;;
65471;SDS011;52068;50.710;14.492;2024-03-06T06:49:09;9.05;;;6.75;;
65471;SDS011;52068;50.710;14.492;2024-03-06T06:51:34;15.02;;;6.85;;
65471;SDS011;52068;50.710;14.492;2024-03-06T06:54:00;9.93;;;6.45;;
65471;SDS011;52068;50.710;14.492;2024-03-06T06:56:26;10.85;;;6.68;;
65471;SDS011;52068;50.710;14.492;2024-03-06T06:58:51;11.18;;;6.72;;
65471;SDS011;52068;50.710;14.492;2024-03-06T07:01:16;11.30;;;6.20;;
65471;SDS011;52068;50.710;14.492;2024-03-06T07:03:42;13.63;;;7.25;;
65471;SDS011;52068;50.710;14.492;2024-03-06T07:06:08;13.27;;;7.13;;
65471;SDS011;52068;50.710;14.492;2024-03-06T07:08:33;11.70;;;7.00;;
65471;SDS011;52068;50.710;14.492;2024-03-06T07:10:58;12.85;;;7.03;;
65471;SDS011;52068;50.710;14.492;2024-03-06T07:13:24;13.85;;;7.95;;
65471;SDS011;52068;50.710;14.492;2024-03-06T07:15:49;11.77;;;7.28;;
65471;SDS011;52068;50.710;14.492;2024-03-06T07:18:15;12.75;;;7.57;;
65471;SDS011;52068;50.710;14.492;2024-03-06T07:20:40;13.30;;;7.50;;
65471;SDS011;52068;50.710;14.492;2024-03-06T07:23:06;18.73;;;7.53;;
65471;SDS011;52068;50.710;14.492;2024-03-06T07:25:31;15.30;;;7.90;;
65471;SDS011;52068;50.710;14.492;2024-03-06T07:27:57;16.23;;;7.90;;
65471;SDS011;52068;50.710;14.492;2024-03-06T07:30:22;14.82;;;7.43;;
65471;SDS011;52068;50.710;14.492;2024-03-06T07:32:47;18.27;;;8.60;;
65471;SDS011;52068;50.710;14.492;2024-03-06T07:35:13;19.27;;;8.32;;
65471;SDS011;52068;50.710;14.492;2024-03-06T07:37:38;15.15;;;7.28;;
65471;SDS011;52068;50.710;14.492;2024-03-06T07:40:04;20.83;;;8.02;;
65471;SDS011;52068;50.710;14.492;2024-03-06T07:42:30;13.63;;;7.80;;
65471;SDS011;52068;50.710;14.492;2024-03-06T07:44:57;13.20;;;7.75;;
65471;SDS011;52068;50.710;14.492;2024-03-06T07:47:22;15.25;;;7.70;;
65471;SDS011;52068;50.710;14.492;2024-03-06T07:49:47;12.95;;;7.18;;
65471;SDS011;52068;50.710;14.492;2024-03-06T07:52:13;15.27;;;7.63;;
65471;SDS011;52068;50.710;14.492;2024-03-06T07:54:38;23.52;;;7.70;;
65471;SDS011;52068;50.710;14.492;2024-03-06T07:57:04;15.65;;;8.02;;
65471;SDS011;52068;50.710;14.492;2024-03-06T07:59:30;18.17;;;8.05;;
65471;SDS011;52068;50.710;14.492;2024-03-06T08:01:55;18.55;;;7.40;;
65471;SDS011;52068;50.710;14.492;2024-03-06T08:04:21;17.33;;;8.00;;
65471;SDS011;52068;50.710;14.492;2024-03-06T08:06:47;16.35;;;7.88;;
65471;SDS011;52068;50.710;14.492;2024-03-06T08:09:12;21.15;;;8.40;;
65471;SDS011;52068;50.710;14.492;2024-03-06T08:11:38;13.13;;;7.95;;
65471;SDS011;52068;50.710;14.492;2024-03-06T08:14:03;16.90;;;8.82;;
65471;SDS011;52068;50.710;14.492;2024-03-06T08:16:29;17.33;;;9.23;;
65471;SDS011;52068;50.710;14.492;2024-03-06T08:18:55;15.00;;;7.93;;
65471;SDS011;52068;50.710;14.492;2024-03-06T08:21:21;14.70;;;8.55;;
65471;SDS011;52068;50.710;14.492;2024-03-06T08:23:47;17.50;;;8.68;;
65471;SDS011;52068;50.710;14.492;2024-03-06T08:26:14;13.13;;;8.15;;
65471;SDS011;52068;50.710;14.492;2024-03-06T08:28:39;14.35;;;8.75;;
65471;SDS011;52068;50.710;14.492;2024-03-06T08:31:05;17.13;;;9.20;;
65471;SDS011;52068;50.710;14.492;2024-03-06T08:33:30;20.75;;;8.48;;
65471;SDS011;52068;50.710;14.492;2024-03-06T08:35:56;15.20;;;8.55;;
65471;SDS011;52068;50.710;14.492;2024-03-06T08:38:22;15.88;;;9.15;;
65471;SDS011;52068;50.710;14.492;2024-03-06T08:40:48;15.23;;;9.23;;
65471;SDS011;52068;50.710;14.492;2024-03-06T08:43:13;18.88;;;8.00;;
65471;SDS011;52068;50.710;14.492;2024-03-06T08:45:40;15.20;;;8.40;;
65471;SDS011;52068;50.710;14.492;2024-03-06T08:48:06;15.52;;;8.52;;
65471;SDS011;52068;50.710;14.492;2024-03-06T08:50:31;13.25;;;8.25;;
65471;SDS011;52068;50.710;14.492;2024-03-06T08:52:57;16.88;;;8.68;;
65471;SDS011;52068;50.710;14.492;2024-03-06T08:55:22;15.60;;;8.68;;
65471;SDS011;52068;50.710;14.492;2024-03-06T08:57:47;21.75;;;9.45;;
65471;SDS011;52068;50.710;14.492;2024-03-06T09:00:15;17.15;;;8.65;;
65471;SDS011;52068;50.710;14.492;2024-03-06T09:02:41;16.30;;;8.23;;
65471;SDS011;52068;50.710;14.492;2024-03-06T09:05:07;15.50;;;8.32;;
65471;SDS011;52068;50.710;14.492;2024-03-06T09:07:35;15.10;;;8.40;;
65471;SDS011;52068;50.710;14.492;2024-03-06T09:10:06;15.38;;;8.00;;
65471;SDS011;52068;50.710;14.492;2024-03-06T09:12:32;17.75;;;8.25;;
65471;SDS011;52068;50.710;14.492;2024-03-06T09:14:58;10.60;;;7.38;;
65471;SDS011;52068;50.710;14.492;2024-03-06T09:17:25;16.85;;;8.40;;
65471;SDS011;52068;50.710;14.492;2024-03-06T09:19:51;13.63;;;7.75;;
65471;SDS011;52068;50.710;14.492;2024-03-06T09:22:17;13.95;;;8.48;;
65471;SDS011;52068;50.710;14.492;2024-03-06T09:24:42;13.80;;;8.10;;
65471;SDS011;52068;50.710;14.492;2024-03-06T09:27:08;12.32;;;7.75;;
65471;SDS011;52068;50.710;14.492;2024-03-06T09:29:33;14.32;;;8.82;;
65471;SDS011;52068;50.710;14.492;2024-03-06T09:31:59;12.20;;;7.75;;
65471;SDS011;52068;50.710;14.492;2024-03-06T09:34:24;15.98;;;8.55;;
65471;SDS011;52068;50.710;14.492;2024-03-06T09:36:50;16.00;;;8.65;;
65471;SDS011;52068;50.710;14.492;2024-03-06T09:39:16;15.13;;;8.27;;
65471;SDS011;52068;50.710;14.492;2024-03-06T09:41:52;12.90;;;8.40;;
65471;SDS011;52068;50.710;14.492;2024-03-06T09:44:19;17.02;;;7.82;;
65471;SDS011;52068;50.710;14.492;2024-03-06T09:46:47;15.18;;;8.60;;
65471;SDS011;52068;50.710;14.492;2024-03-06T09:49:18;12.50;;;8.68;;
65471;SDS011;52068;50.710;14.492;2024-03-06T09:51:45;15.25;;;8.85;;
65471;SDS011;52068;50.710;14.492;2024-03-06T09:54:12;13.05;;;8.32;;
65471;SDS011;52068;50.710;14.492;2024-03-06T09:56:49;14.48;;;7.20;;
65471;SDS011;52068;50.710;14.492;2024-03-06T09:59:14;11.70;;;7.13;;
65471;SDS011;52068;50.710;14.492;2024-03-06T10:01:43;14.20;;;7.97;;
65471;SDS011;52068;50.710;14.492;2024-03-06T10:04:24;11.35;;;7.88;;
65471;SDS011;52068;50.710;14.492;2024-03-06T10:06:57;11.20;;;7.50;;
65471;SDS011;52068;50.710;14.492;2024-03-06T10:09:24;11.80;;;7.30;;
65471;SDS011;52068;50.710;14.492;2024-03-06T10:11:50;11.68;;;7.80;;
65471;SDS011;52068;50.710;14.492;2024-03-06T10:14:18;13.13;;;7.90;;
65471;SDS011;52068;50.710;14.492;2024-03-06T10:16:57;11.93;;;7.30;;
65471;SDS011;52068;50.710;14.492;2024-03-06T10:19:24;10.52;;;7.00;;
65471;SDS011;52068;50.710;14.492;2024-03-06T10:21:52;12.57;;;7.43;;
65471;SDS011;52068;50.710;14.492;2024-03-06T10:24:19;11.02;;;7.00;;
65471;SDS011;52068;50.710;14.492;2024-03-06T10:26:45;11.20;;;7.35;;
65471;SDS011;52068;50.710;14.492;2024-03-06T10:29:14;11.48;;;7.25;;
65471;SDS011;52068;50.710;14.492;2024-03-06T10:31:41;11.75;;;6.90;;
65471;SDS011;52068;50.710;14.492;2024-03-06T10:34:11;11.23;;;7.15;;
65471;SDS011;52068;50.710;14.492;2024-03-06T10:36:37;13.32;;;7.05;;
65471;SDS011;52068;50.710;14.492;2024-03-06T10:39:02;9.95;;;6.97;;
65471;SDS011;52068;50.710;14.492;2024-03-06T10:41:28;11.88;;;7.35;;
65471;SDS011;52068;50.710;14.492;2024-03-06T10:43:57;13.45;;;7.15;;
65471;SDS011;52068;50.710;14.492;2024-03-06T10:46:24;11.65;;;6.97;;
65471;SDS011;52068;50.710;14.492;2024-03-06T10:48:52;10.45;;;6.82;;
65471;SDS011;52068;50.710;14.492;2024-03-06T10:51:19;11.00;;;6.60;;
65471;SDS011;52068;50.710;14.492;2024-03-06T10:53:46;10.27;;;6.93;;
65471;SDS011;52068;50.710;14.492;2024-03-06T10:56:13;10.02;;;6.32;;
65471;SDS011;52068;50.710;14.492;2024-03-06T10:58:38;10.35;;;6.95;;
65471;SDS011;52068;50.710;14.492;2024-03-06T11:01:05;9.98;;;6.78;;
65471;SDS011;52068;50.710;14.492;2024-03-06T11:03:33;10.07;;;6.57;;
65471;SDS011;52068;50.710;14.492;2024-03-06T11:06:00;9.95;;;6.05;;
65471;SDS011;52068;50.710;14.492;2024-03-06T11:08:27;10.40;;;6.43;;
65471;SDS011;52068;50.710;14.492;2024-03-06T11:10:53;10.73;;;7.18;;
65471;SDS011;52068;50.710;14.492;2024-03-06T11:13:39;9.98;;;6.30;;
65471;SDS011;52068;50.710;14.492;2024-03-06T11:16:05;11.00;;;7.05;;
65471;SDS011;52068;50.710;14.492;2024-03-06T11:21:44;8.38;;;5.97;;
65471;SDS011;52068;50.710;14.492;2024-03-06T11:26:43;10.90;;;7.22;;
65471;SDS011;52068;50.710;14.492;2024-03-06T11:29:11;8.38;;;6.28;;
65471;SDS011;52068;50.710;14.492;2024-03-06T11:31:36;11.68;;;7.15;;
65471;SDS011;52068;50.710;14.492;2024-03-06T11:34:02;9.68;;;6.55;;
65471;SDS011;52068;50.710;14.492;2024-03-06T11:36:29;9.23;;;5.90;;
65471;SDS011;52068;50.710;14.492;2024-03-06T11:41:27;9.13;;;6.20;;
65471;SDS011;52068;50.710;14.492;2024-03-06T11:43:56;9.50;;;6.40;;
65471;SDS011;52068;50.710;14.492;2024-03-06T11:47:25;13.25;;;6.85;;
65471;SDS011;52068;50.710;14.492;2024-03-06T11:49:23;9.48;;;6.20;;
65471;SDS011;52068;50.710;14.492;2024-03-06T11:51:50;7.03;;;5.65;;
65471;SDS011;52068;50.710;14.492;2024-03-06T11:54:17;10.25;;;6.57;;
65471;SDS011;52068;50.710;14.492;2024-03-06T11:56:49;9.40;;;6.50;;
65471;SDS011;52068;50.710;14.492;2024-03-06T11:59:16;10.75;;;6.40;;
65471;SDS011;52068;50.710;14.492;2024-03-06T12:01:42;8.25;;;5.78;;
65471;SDS011;52068;50.710;14.492;2024-03-06T12:04:08;9.70;;;6.20;;
65471;SDS011;52068;50.710;14.492;2024-03-06T12:06:33;8.95;;;6.00;;
65471;SDS011;52068;50.710;14.492;2024-03-06T12:08:59;9.90;;;5.88;;
65471;SDS011;52068;50.710;14.492;2024-03-06T12:11:25;8.98;;;6.03;;
65471;SDS011;52068;50.710;14.492;2024-03-06T12:13:54;8.85;;;5.95;;
65471;SDS011;52068;50.710;14.492;2024-03-06T12:16:20;9.38;;;5.60;;
65471;SDS011;52068;50.710;14.492;2024-03-06T12:18:46;8.55;;;5.60;;
65471;SDS011;52068;50.710;14.492;2024-03-06T12:21:11;6.88;;;5.13;;
65471;SDS011;52068;50.710;14.492;2024-03-06T12:23:38;8.02;;;5.65;;
65471;SDS011;52068;50.710;14.492;2024-03-06T12:26:08;9.32;;;6.10;;
65471;SDS011;52068;50.710;14.492;2024-03-06T12:28:36;9.02;;;5.90;;
65471;SDS011;52068;50.710;14.492;2024-03-06T12:31:03;10.65;;;6.13;;
65471;SDS011;52068;50.710;14.492;2024-03-06T12:33:28;8.80;;;6.15;;
65471;SDS011;52068;50.710;14.492;2024-03-06T12:36:04;7.60;;;5.53;;
65471;SDS011;52068;50.710;14.492;2024-03-06T12:38:31;9.20;;;6.03;;
65471;SDS011;52068;50.710;14.492;2024-03-06T12:40:58;7.95;;;5.90;;
65471;SDS011;52068;50.710;14.492;2024-03-06T12:43:24;8.98;;;6.20;;
65471;SDS011;52068;50.710;14.492;2024-03-06T12:45:50;10.20;;;5.75;;
65471;SDS011;52068;50.710;14.492;2024-03-06T12:48:19;8.50;;;6.30;;
65471;SDS011;52068;50.710;14.492;2024-03-06T12:50:45;8.52;;;5.88;;
65471;SDS011;52068;50.710;14.492;2024-03-06T12:53:16;8.23;;;5.80;;
65471;SDS011;52068;50.710;14.492;2024-03-06T12:55:41;9.77;;;6.03;;
65471;SDS011;52068;50.710;14.492;2024-03-06T12:58:10;8.70;;;6.15;;
65471;SDS011;52068;50.710;14.492;2024-03-06T13:00:36;6.90;;;5.50;;
65471;SDS011;52068;50.710;14.492;2024-03-06T13:03:01;8.77;;;6.05;;
65471;SDS011;52068;50.710;14.492;2024-03-06T13:05:27;7.57;;;5.43;;
65471;SDS011;52068;50.710;14.492;2024-03-06T13:07:52;8.65;;;6.25;;
65471;SDS011;52068;50.710;14.492;2024-03-06T13:10:17;9.45;;;6.63;;
65471;SDS011;52068;50.710;14.492;2024-03-06T13:12:43;8.68;;;5.70;;
65471;SDS011;52068;50.710;14.492;2024-03-06T13:15:08;8.05;;;5.70;;
65471;SDS011;52068;50.710;14.492;2024-03-06T13:17:34;8.93;;;6.03;;
65471;SDS011;52068;50.710;14.492;2024-03-06T13:19:59;7.20;;;5.68;;
65471;SDS011;52068;50.710;14.492;2024-03-06T13:22:25;8.45;;;5.90;;
65471;SDS011;52068;50.710;14.492;2024-03-06T13:24:51;9.60;;;5.60;;
65471;SDS011;52068;50.710;14.492;2024-03-06T13:27:16;10.20;;;6.18;;
65471;SDS011;52068;50.710;14.492;2024-03-06T13:29:42;8.85;;;6.00;;
65471;SDS011;52068;50.710;14.492;2024-03-06T13:32:07;7.20;;;5.55;;
65471;SDS011;52068;50.710;14.492;2024-03-06T13:34:33;8.65;;;5.63;;
65471;SDS011;52068;50.710;14.492;2024-03-06T13:36:58;9.90;;;5.97;;
65471;SDS011;52068;50.710;14.492;2024-03-06T13:39:24;7.28;;;5.43;;
65471;SDS011;52068;50.710;14.492;2024-03-06T13:41:50;9.05;;;5.40;;
65471;SDS011;52068;50.710;14.492;2024-03-06T13:44:17;7.53;;;5.63;;
65471;SDS011;52068;50.710;14.492;2024-03-06T13:46:42;8.43;;;4.90;;
65471;SDS011;52068;50.710;14.492;2024-03-06T13:49:11;7.55;;;5.85;;
65471;SDS011;52068;50.710;14.492;2024-03-06T13:51:59;7.60;;;5.60;;
65471;SDS011;52068;50.710;14.492;2024-03-06T13:54:24;7.50;;;5.85;;
65471;SDS011;52068;50.710;14.492;2024-03-06T13:56:50;7.68;;;5.90;;
65471;SDS011;52068;50.710;14.492;2024-03-06T13:59:16;10.25;;;6.25;;
65471;SDS011;52068;50.710;14.492;2024-03-06T14:01:41;7.03;;;5.50;;
65471;SDS011;52068;50.710;14.492;2024-03-06T14:04:06;8.95;;;6.05;;
65471;SDS011;52068;50.710;14.492;2024-03-06T14:06:32;7.45;;;5.22;;
65471;SDS011;52068;50.710;14.492;2024-03-06T14:08:58;7.95;;;5.47;;
65471;SDS011;52068;50.710;14.492;2024-03-06T14:11:24;9.43;;;5.82;;
65471;SDS011;52068;50.710;14.492;2024-03-06T14:13:50;9.00;;;5.43;;
65471;SDS011;52068;50.710;14.492;2024-03-06T14:16:16;7.72;;;5.70;;
65471;SDS011;52068;50.710;14.492;2024-03-06T14:18:41;8.77;;;5.78;;
65471;SDS011;52068;50.710;14.492;2024-03-06T14:21:06;7.30;;;5.80;;
65471;SDS011;52068;50.710;14.492;2024-03-06T14:23:32;7.10;;;5.38;;
65471;SDS011;52068;50.710;14.492;2024-03-06T14:25:57;6.72;;;5.53;;
65471;SDS011;52068;50.710;14.492;2024-03-06T14:28:23;8.43;;;5.60;;